Terminal Aerodrome Forecast
Issued by NWS Sterling, VA

Current Version | Previous Version | Graphics & Text | Print | Product List | Glossary On
Versions: 1 2 3 4 5 6 7 8 9 10 11 12 13 14 15 16 17 18 19 20 21 22 23 24
000
FTUS41 KLWX 171700
TAFDCA
TAF
KDCA 171726Z 1718/1818 11009KT P6SM FEW050 SCT250
     FM180600 09005KT P6SM BKN050
     FM181200 03005KT P6SM BKN050
     FM181700 09005KT P6SM BKN130=

USA.gov is the U.S. government's official web portal to all federal, state and local government web resources and services.